Hot Spring
  Details for Hot Spring Flood Warning
Garland
  Details for Garland 
Saline
  Details for Saline 
Find Your Local NWS Forecast By:

Current Infrared Satellite Current Radar
Today

Chance T-Storms. Chance for Measurable Precipitation 40%
Chance
T-Storms
Tonight

Chance T-Storms. Chance for Measurable Precipitation 40%
Chance
T-Storms
Wednesday

Chance T-Storms. Chance for Measurable Precipitation 40%
Chance
T-Storms
Wednesday
Night

Slight Chc T-Storms. Chance for Measurable Precipitation 20%
Slight Chc
T-Storms
Thursday

Chance T-Storms. Chance for Measurable Precipitation 40%
Chance
T-Storms
Thursday
Night

Chance T-Storms. Chance for Measurable Precipitation 30%
Chance
T-Storms
Friday

Chance T-Storms. Chance for Measurable Precipitation 40%
Chance
T-Storms
Friday
Night

Chance T-Storms. Chance for Measurable Precipitation 50%
Chance
T-Storms
Hi 83 °FLo 69 °FHi 84 °FLo 68 °F Hi 84 °FLo 69 °FHi 84 °FLo 68 °F

Information below will update every 30 to 60 minutes
KHOT - Hot Springs, Arkansas, USA
Distance from station: SW 32.4mi, 52km
Updated: Tue, 26-May-2015 9:53am CDT
Overcast
Overcast
 Wind from SW
Wind: SW 6 mph , 9 km/h
Temperature: 66°F , 19°C
Dew Point: 61°F , 16°C
Humidity: 83%
Barometer: 30.04 inHg , 1017.3 hPa
Clouds: Overcast
Visibility: 10 miles , 16 km
Cloud details: Overcast 1200 ft
2015/05/26 14:53 KHOT 261453Z AUTO 22005KT 10SM OVC012 19/16 A3004 RMK AO2 SLP169 T01890161 53017
KLIT - Little Rock, Arkansas, USA
Distance from station: NE 19.5mi, 31km
Updated: Tue, 26-May-2015 9:53am CDT
Overcast
Overcast
 Wind from SW
Wind: SW 12 mph , 19 km/h
Temperature: 70°F , 21°C
Dew Point: 61°F , 16°C
Humidity: 73%
Barometer: 30.03 inHg , 1016.9 hPa
Clouds: Overcast
Visibility: 10 miles , 16 km
Cloud details: Mostly Cloudy 1500 ft
Overcast 2500 ft
2015/05/26 14:53 KLIT 261453Z 23010KT 10SM BKN015 OVC025 21/16 A3003 RMK AO2 SLP169 CIG RGD T02060161 50008